createdAt,value
2018-07-23T00:02:48.334Z,101007.50
2018-07-23T00:07:40.889Z,101013.69
2018-07-23T00:12:33.399Z,101013.59
2018-07-23T00:17:25.997Z,101017.01
2018-07-23T00:22:18.673Z,101022.58
2018-07-23T00:27:11.308Z,101016.42
2018-07-23T00:32:03.899Z,101016.50
2018-07-23T00:36:56.433Z,101010.50
2018-07-23T00:41:48.940Z,101016.09
2018-07-23T00:46:41.489Z,101014.21
2018-07-23T00:51:34.109Z,101017.58
2018-07-23T00:56:26.643Z,101019.84
2018-07-23T01:01:19.166Z,101023.19
2018-07-23T01:06:11.775Z,101015.61
2018-07-23T01:11:04.574Z,101018.98
2018-07-23T01:15:57.109Z,101014.16
2018-07-23T01:20:49.682Z,101024.94
2018-07-23T01:25:42.208Z,101027.78
2018-07-23T01:30:34.771Z,101034.70
2018-07-23T01:35:27.305Z,101030.13
2018-07-23T01:40:19.912Z,101028.56
2018-07-23T01:45:12.503Z,101034.11
2018-07-23T01:50:05.392Z,101031.92
2018-07-23T01:54:58.076Z,101039.91
2018-07-23T01:59:50.606Z,101033.36
2018-07-23T02:04:43.179Z,101032.63
2018-07-23T02:09:35.730Z,101035.69
2018-07-23T02:14:28.260Z,101029.69
2018-07-23T02:19:20.761Z,101042.63
2018-07-23T02:24:13.356Z,101048.70
2018-07-23T02:29:05.922Z,101044.70
2018-07-23T02:33:58.470Z,101048.86
2018-07-23T02:38:51.085Z,101050.03
2018-07-23T02:43:43.643Z,101059.12
2018-07-23T02:48:36.268Z,101059.23
2018-07-23T02:53:28.792Z,101063.11
2018-07-23T02:58:21.396Z,101061.01
2018-07-23T03:03:14.058Z,101061.34
2018-07-23T03:08:06.641Z,101066.63
2018-07-23T03:12:59.161Z,101073.23
2018-07-23T03:17:51.737Z,101070.52
2018-07-23T03:22:44.279Z,101076.05
2018-07-23T03:27:36.884Z,101071.69
2018-07-23T03:32:29.507Z,101074.47
2018-07-23T03:37:22.054Z,101072.86
2018-07-23T03:42:14.540Z,101070.67
2018-07-23T03:47:07.061Z,101083.84
2018-07-23T03:51:59.681Z,101091.52
2018-07-23T03:56:52.438Z,101091.85
2018-07-23T04:01:44.993Z,101087.78
2018-07-23T04:06:37.533Z,101085.33
2018-07-23T04:11:30.076Z,101094.41
2018-07-23T04:16:22.676Z,101097.97
2018-07-23T04:21:15.323Z,101089.52
2018-07-23T04:26:07.884Z,101092.27
2018-07-23T04:31:00.467Z,101102.16
2018-07-23T04:35:53.051Z,101102.45
2018-07-23T04:40:45.675Z,101100.27
2018-07-23T04:45:38.217Z,101111.22
2018-07-23T04:50:30.855Z,101120.25
2018-07-23T04:55:23.426Z,101127.36
2018-07-23T05:00:16.033Z,101133.09
2018-07-23T05:05:08.619Z,101130.08
2018-07-23T05:10:01.194Z,101128.70
2018-07-23T05:14:53.791Z,101126.52
2018-07-23T05:19:46.579Z,101124.55
2018-07-23T05:24:39.301Z,101128.61
2018-07-23T05:29:31.817Z,101134.82
2018-07-23T05:34:24.359Z,101132.27
2018-07-23T05:39:17.051Z,101133.32
2018-07-23T05:44:09.613Z,101131.92
2018-07-23T05:49:02.227Z,101134.62
2018-07-23T05:53:54.971Z,101137.58
2018-07-23T05:58:47.610Z,101132.06
2018-07-23T06:03:40.296Z,101136.08
2018-07-23T06:13:21.475Z,101140.36
2018-07-23T06:18:14.103Z,101146.06
2018-07-23T06:23:06.837Z,101150.91
2018-07-23T06:28:00.839Z,101142.05
2018-07-23T06:32:53.399Z,101149.09
2018-07-23T06:37:46.036Z,101155.88
2018-07-23T06:42:38.634Z,101146.96
2018-07-23T06:47:31.421Z,101147.91
2018-07-23T06:52:24.112Z,101145.49
2018-07-23T06:57:16.693Z,101148.00
2018-07-23T07:02:09.377Z,101143.73
2018-07-23T07:07:01.948Z,101143.57
2018-07-23T07:11:54.638Z,101145.11
2018-07-23T07:16:47.213Z,101147.42
2018-07-23T07:21:39.733Z,101148.30
2018-07-23T07:26:32.282Z,101145.87
2018-07-23T07:31:24.891Z,101155.72
2018-07-23T07:36:17.586Z,101156.67
2018-07-23T07:41:10.149Z,101161.36
2018-07-23T07:46:02.865Z,101163.39
2018-07-23T07:50:55.648Z,101166.06
2018-07-23T07:55:48.212Z,101159.80
2018-07-23T08:00:40.789Z,101161.94
2018-07-23T08:05:33.386Z,101164.82
2018-07-23T08:10:26.048Z,101164.06
2018-07-23T08:15:18.598Z,101162.45
2018-07-23T08:20:11.230Z,101174.09
2018-07-23T08:25:03.895Z,101176.13
2018-07-23T08:29:56.475Z,101173.16
2018-07-23T08:34:49.071Z,101173.70
2018-07-23T08:39:41.624Z,101168.84
2018-07-23T08:44:34.185Z,101179.73
2018-07-23T08:49:26.896Z,101179.42
2018-07-23T08:54:19.543Z,101189.86
2018-07-23T08:59:12.142Z,101190.68
2018-07-23T09:04:05.255Z,101191.33
2018-07-23T09:08:57.885Z,101190.52
2018-07-23T09:13:50.568Z,101183.97
2018-07-23T09:18:43.161Z,101188.84
2018-07-23T09:23:35.737Z,101189.45
2018-07-23T09:28:28.408Z,101193.13
2018-07-23T09:33:22.322Z,101187.69
2018-07-23T09:38:14.901Z,101197.91
2018-07-23T09:43:07.583Z,101185.14
2018-07-23T09:48:00.213Z,101194.55
2018-07-23T09:52:52.798Z,101185.13
2018-07-23T09:57:45.491Z,101173.88
2018-07-23T10:02:38.061Z,101175.45
2018-07-23T10:07:30.703Z,101167.53
2018-07-23T10:12:23.324Z,101181.78
2018-07-23T10:17:16.007Z,101170.28
2018-07-23T10:22:08.716Z,101165.84
2018-07-23T10:27:01.360Z,101170.80
2018-07-23T10:31:53.918Z,101164.59
2018-07-23T10:36:46.512Z,101155.47
2018-07-23T10:41:39.156Z,101170.00
2018-07-23T10:46:31.942Z,101163.91
2018-07-23T10:51:24.523Z,101170.17
2018-07-23T10:56:17.103Z,101167.90
2018-07-23T11:01:09.822Z,101160.05
2018-07-23T11:06:02.441Z,101151.25
2018-07-23T11:10:54.998Z,101151.73
2018-07-23T11:15:47.604Z,101151.05
2018-07-23T11:20:40.151Z,101154.28
2018-07-23T11:25:40.376Z,101150.23
2018-07-23T11:30:25.361Z,101154.88
2018-07-23T11:35:17.950Z,101158.11
2018-07-23T11:40:10.554Z,101142.37
2018-07-23T11:45:03.341Z,101145.16
2018-07-23T11:49:55.904Z,101141.45
2018-07-23T11:54:48.558Z,101152.10
2018-07-23T11:59:41.249Z,101134.52
2018-07-23T12:04:33.939Z,101149.90
2018-07-23T12:09:26.530Z,101136.31
2018-07-23T12:14:19.282Z,101134.77
2018-07-23T12:19:11.954Z,101144.41
2018-07-23T12:24:05.083Z,101139.91
2018-07-23T12:28:57.613Z,101133.48
2018-07-23T12:33:50.357Z,101126.30
2018-07-23T12:38:43.042Z,101132.80
2018-07-23T12:43:35.631Z,101132.80
2018-07-23T12:48:28.290Z,101127.17
2018-07-23T12:53:20.869Z,101130.58
2018-07-23T12:58:13.454Z,101135.89
2018-07-23T13:03:06.057Z,101138.48
2018-07-23T13:07:59.148Z,101140.95
2018-07-23T13:12:51.852Z,101134.52
2018-07-23T13:17:44.482Z,101135.10
2018-07-23T13:22:37.099Z,101137.66
2018-07-23T13:27:29.859Z,101134.91
2018-07-23T13:32:22.456Z,101140.72
2018-07-23T13:37:15.151Z,101136.39
2018-07-23T13:42:07.874Z,101144.54
2018-07-23T13:47:00.510Z,101136.64
2018-07-23T13:51:53.087Z,101130.04
2018-07-23T13:56:45.641Z,101131.13
2018-07-23T14:01:38.319Z,101125.30
2018-07-23T14:06:31.129Z,101129.27
2018-07-23T14:11:23.738Z,101114.68
2018-07-23T14:16:16.401Z,101128.81
2018-07-23T14:21:09.192Z,101123.69
2018-07-23T14:26:01.923Z,101114.30
2018-07-23T14:30:54.571Z,101123.16
2018-07-23T14:35:47.170Z,101119.14
2018-07-23T14:40:39.899Z,101109.98
2018-07-23T14:45:32.543Z,101109.41
2018-07-23T14:50:25.194Z,101100.47
2018-07-23T14:55:17.808Z,101096.55
2018-07-23T15:00:10.392Z,101094.22
2018-07-23T15:05:02.973Z,101094.95
2018-07-23T15:09:55.518Z,101095.17
2018-07-23T15:14:49.299Z,101092.39
2018-07-23T15:19:41.921Z,101085.78
2018-07-23T15:24:34.662Z,101084.95
2018-07-23T15:29:27.290Z,101091.69
2018-07-23T15:34:19.970Z,101082.53
2018-07-23T15:39:12.601Z,101085.48
2018-07-23T15:44:05.269Z,101078.78
2018-07-23T15:48:57.722Z,101082.52
2018-07-23T15:53:50.302Z,101075.84
2018-07-23T15:58:42.816Z,101073.08
2018-07-23T16:03:35.402Z,101078.09
2018-07-23T16:08:27.972Z,101073.78
2018-07-23T16:13:20.527Z,101072.23
2018-07-23T16:18:13.108Z,101071.65
2018-07-23T16:23:05.819Z,101072.72
2018-07-23T16:27:58.414Z,101069.38
2018-07-23T16:32:50.986Z,101072.80
2018-07-23T16:37:43.588Z,101071.66
2018-07-23T16:42:36.258Z,101075.27
2018-07-23T16:47:28.843Z,101071.86
2018-07-23T16:52:21.497Z,101069.25
2018-07-23T16:57:14.140Z,101068.45
2018-07-23T17:02:06.825Z,101079.04
2018-07-23T17:06:59.457Z,101074.08
2018-07-23T17:11:52.108Z,101078.64
2018-07-23T17:16:44.678Z,101083.52
2018-07-23T17:21:37.290Z,101080.31
2018-07-23T17:26:29.840Z,101073.13
2018-07-23T17:31:22.433Z,101084.63
2018-07-23T17:36:15.064Z,101085.61
2018-07-23T17:41:07.653Z,101087.02
2018-07-23T17:46:00.442Z,101089.91
2018-07-23T17:50:53.090Z,101093.83
2018-07-23T17:55:45.640Z,101097.30
2018-07-23T18:00:38.192Z,101094.72
2018-07-23T18:05:30.887Z,101100.72
2018-07-23T18:10:23.520Z,101096.91
2018-07-23T18:15:16.123Z,101100.73
2018-07-23T18:20:08.713Z,101109.15
2018-07-23T18:25:01.770Z,101112.26
2018-07-23T18:29:54.392Z,101126.45
2018-07-23T18:34:47.002Z,101119.73
2018-07-23T18:39:39.634Z,101127.47
2018-07-23T18:44:32.277Z,101123.38
2018-07-23T18:49:43.862Z,101126.72
2018-07-23T18:54:36.865Z,101126.97
2018-07-23T18:59:29.529Z,101135.03
2018-07-23T19:04:22.198Z,101140.17
2018-07-23T19:09:16.090Z,101150.84
2018-07-23T19:14:08.861Z,101153.87
2018-07-23T19:19:02.386Z,101157.45
2018-07-23T19:23:54.949Z,101162.90
2018-07-23T19:28:47.620Z,101164.42
2018-07-23T19:33:40.148Z,101171.76
2018-07-23T19:38:32.737Z,101177.09
2018-07-23T19:43:25.571Z,101181.45
2018-07-23T19:48:18.154Z,101182.03
2018-07-23T19:53:10.804Z,101186.30
2018-07-23T19:58:03.528Z,101189.33
2018-07-23T20:02:56.326Z,101186.59
2018-07-23T20:07:49.380Z,101192.23
2018-07-23T20:12:42.382Z,101189.31
2018-07-23T20:17:35.080Z,101188.39
2018-07-23T20:22:27.717Z,101192.94
2018-07-23T20:27:20.393Z,101193.13
2018-07-23T20:32:13.262Z,101190.68
2018-07-23T20:37:05.866Z,101195.29
2018-07-23T20:41:58.538Z,101191.95
2018-07-23T20:46:51.410Z,101194.53
2018-07-23T20:51:44.124Z,101200.01
2018-07-23T20:56:36.842Z,101200.56
2018-07-23T21:01:29.441Z,101198.05
2018-07-23T21:06:22.449Z,101201.77
2018-07-23T21:11:15.417Z,101203.97
2018-07-23T21:16:08.372Z,101207.95
2018-07-23T21:21:01.114Z,101210.78
2018-07-23T21:25:53.753Z,101211.27
2018-07-23T21:30:46.615Z,101208.95
2018-07-23T21:35:39.312Z,101205.54
2018-07-23T21:40:31.941Z,101207.92
2018-07-23T21:45:24.677Z,101210.66
2018-07-23T21:50:17.306Z,101217.45
2018-07-23T21:55:09.985Z,101207.05
2018-07-23T22:00:02.621Z,101208.40
2018-07-23T22:04:55.402Z,101217.57
2018-07-23T22:09:48.071Z,101214.78
2018-07-23T22:14:40.823Z,101227.13
2018-07-23T22:19:33.465Z,101228.01
2018-07-23T22:24:26.145Z,101221.69
2018-07-23T22:29:18.788Z,101221.23
2018-07-23T22:34:11.530Z,101221.24
2018-07-23T22:39:07.873Z,101223.37
2018-07-23T22:44:00.515Z,101223.08
2018-07-23T22:48:53.193Z,101231.02
2018-07-23T22:53:45.758Z,101229.63
2018-07-23T22:58:38.337Z,101230.16
2018-07-23T23:03:31.087Z,101231.52
2018-07-23T23:08:23.738Z,101242.95
2018-07-23T23:13:16.603Z,101241.79
2018-07-23T23:18:09.377Z,101249.96
2018-07-23T23:23:01.998Z,101244.06
2018-07-23T23:27:54.585Z,101246.20
2018-07-23T23:32:47.168Z,101246.63
2018-07-23T23:37:39.837Z,101246.08
2018-07-23T23:42:32.456Z,101242.85
2018-07-23T23:47:25.107Z,101241.67
2018-07-23T23:52:17.785Z,101236.06
2018-07-23T23:57:10.377Z,101233.98
